Time;durP1;ratioP1;P1;durP2;ratioP2;P2;SDS_P1;SDS_P2;PMS_P1;PMS_P2;Temp;Humidity;BMP_temperature;BMP_pressure;BME280_temperature;BME280_humidity;BME280_pressure;Samples;Min_cycle;Max_cycle;Signal;HPM_P1;HPM_P2
2022/11/13 00:00:54;;;;;;;1999.90;999.90;;;2.60;99.90;;;;;;5013263;28;20062;-73
2022/11/13 00:03:20;;;;;;;1999.90;999.90;;;2.50;99.90;;;;;;5013340;28;20121;-73
2022/11/13 00:05:45;;;;;;;1999.90;999.90;;;2.60;99.90;;;;;;5014572;28;20042;-73
2022/11/13 00:08:11;;;;;;;1999.90;999.90;;;2.60;99.90;;;;;;5013065;28;20035;-73
2022/11/13 00:10:37;;;;;;;1999.90;999.90;;;2.60;99.90;;;;;;5014524;28;20580;-73
2022/11/13 00:13:03;;;;;;;1999.90;999.90;;;2.60;99.90;;;;;;5017498;28;20030;-73
2022/11/13 00:15:28;;;;;;;1999.90;999.90;;;2.60;99.90;;;;;;5021062;28;20038;-73
2022/11/13 00:17:54;;;;;;;1999.90;999.90;;;2.60;99.90;;;;;;5020578;28;20123;-73
2022/11/13 00:20:20;;;;;;;1999.90;999.90;;;2.60;99.90;;;;;;5021187;28;20540;-73
2022/11/13 00:22:46;;;;;;;1999.90;999.90;;;2.60;99.90;;;;;;5021456;28;20038;-73
2022/11/13 00:25:12;;;;;;;1999.90;999.90;;;2.60;99.90;;;;;;5020737;28;20042;-73
2022/11/13 00:27:37;;;;;;;1999.90;999.90;;;2.60;99.90;;;;;;5020757;28;20431;-73
2022/11/13 05:01:45;;;;;;;1999.90;999.90;;;1.20;99.90;;;;;;5415348;23;20069;-72
2022/11/13 05:04:13;;;;;;;1999.90;999.90;;;1.20;99.90;;;;;;5017527;28;20042;-73
2022/11/13 05:06:38;;;;;;;1999.90;999.90;;;1.10;99.90;;;;;;5016545;28;20456;-73
2022/11/13 05:09:04;;;;;;;1999.90;999.90;;;1.10;99.90;;;;;;5017310;28;20073;-73
2022/11/13 05:11:29;;;;;;;1999.90;999.90;;;1.00;99.90;;;;;;5016984;28;20038;-73
2022/11/13 05:13:55;;;;;;;1999.90;999.90;;;1.10;99.90;;;;;;5056945;23;20034;-74
2022/11/13 05:16:20;;;;;;;1999.90;999.90;;;1.00;99.90;;;;;;5015866;28;20050;-74
2022/11/13 05:18:46;;;;;;;1999.90;999.90;;;1.10;99.90;;;;;;5017139;28;20113;-74
2022/11/13 05:21:12;;;;;;;1999.90;999.90;;;1.10;99.90;;;;;;5017315;28;20034;-74
2022/11/13 05:23:38;;;;;;;1999.90;999.90;;;1.10;99.90;;;;;;5016939;28;20035;-74
2022/11/13 05:26:09;;;;;;;1999.90;999.90;;;1.10;99.90;;;;;;5016987;28;20097;-74
2022/11/13 05:28:36;;;;;;;1999.90;999.90;;;1.10;99.90;;;;;;5017281;28;20061;-74
2022/11/13 05:31:12;;;;;;;1999.90;999.90;;;1.10;99.90;;;;;;5016963;28;20042;-74
2022/11/13 05:33:38;;;;;;;1999.90;999.90;;;1.00;99.90;;;;;;5015501;28;20034;-74
2022/11/13 05:36:15;;;;;;;1999.90;999.90;;;1.10;99.90;;;;;;5016774;28;20118;-74
2022/11/13 05:38:42;;;;;;;1999.90;999.90;;;1.10;99.90;;;;;;5015689;28;20042;-74
2022/11/13 05:41:10;;;;;;;1999.90;999.90;;;1.00;99.90;;;;;;5016771;28;20026;-74
2022/11/13 05:43:36;;;;;;;1999.90;999.90;;;0.90;99.90;;;;;;5016689;28;20045;-74
2022/11/13 05:46:04;;;;;;;1999.90;999.90;;;1.00;99.90;;;;;;5016220;28;20044;-74
2022/11/13 05:48:31;;;;;;;1999.90;999.90;;;1.00;99.90;;;;;;5016642;28;20546;-74
2022/11/13 05:51:08;;;;;;;1999.90;999.90;;;1.00;99.90;;;;;;5016751;28;20042;-74
2022/11/13 05:53:35;;;;;;;1999.90;999.90;;;1.00;99.90;;;;;;5016779;28;20062;-74
2022/11/13 05:56:05;;;;;;;1999.90;999.90;;;0.90;99.90;;;;;;5016212;28;20043;-74
2022/11/13 05:58:32;;;;;;;1999.90;999.90;;;0.80;99.90;;;;;;5016563;28;20045;-74
2022/11/13 06:01:19;;;;;;;1999.90;999.90;;;0.80;99.90;;;;;;5016890;28;20030;-74
2022/11/13 06:03:46;;;;;;;1999.90;999.90;;;0.80;99.90;;;;;;5016429;28;20030;-74
2022/11/13 06:06:14;;;;;;;1999.90;999.90;;;0.80;99.90;;;;;;5016308;28;20408;-74
2022/11/13 06:08:40;;;;;;;1999.90;999.90;;;0.90;99.90;;;;;;5016345;28;20038;-74
2022/11/13 06:11:12;;;;;;;1999.90;999.90;;;0.80;99.90;;;;;;5016044;28;20121;-74
2022/11/13 06:13:38;;;;;;;1999.90;999.90;;;0.70;99.90;;;;;;5016569;28;20030;-74
2022/11/13 06:16:10;;;;;;;1999.90;999.90;;;0.80;99.90;;;;;;5015781;28;20038;-74
2022/11/13 06:18:36;;;;;;;1999.90;999.90;;;0.80;99.90;;;;;;5016078;28;20026;-74
2022/11/13 06:21:09;;;;;;;1999.90;999.90;;;0.90;99.90;;;;;;5016428;28;20557;-74
2022/11/13 06:23:36;;;;;;;1999.90;999.90;;;0.90;99.90;;;;;;5016378;28;20092;-74
2022/11/13 06:26:03;;;;;;;1999.90;999.90;;;0.90;99.90;;;;;;5015709;28;20042;-74
2022/11/13 06:28:29;;;;;;;1999.90;999.90;;;0.90;99.90;;;;;;5015940;28;20411;-74
2022/11/13 06:30:55;;;;;;;1999.90;999.90;;;0.90;99.90;;;;;;5015957;28;20046;-74
2022/11/13 06:33:20;;;;;;;1999.90;999.90;;;1.00;99.90;;;;;;5016145;28;20480;-74
2022/11/13 06:35:46;;;;;;;1999.90;999.90;;;1.00;99.90;;;;;;5015337;28;20039;-74
2022/11/13 06:38:12;;;;;;;1999.90;999.90;;;1.10;99.90;;;;;;5016038;28;20026;-74
2022/11/13 06:40:38;;;;;;;1999.90;999.90;;;1.00;99.90;;;;;;5015735;28;20118;-74
2022/11/13 06:43:03;;;;;;;1999.90;999.90;;;0.90;99.90;;;;;;5015865;28;20030;-74
2022/11/13 06:45:29;;;;;;;1999.90;999.90;;;1.10;99.90;;;;;;5015474;28;20043;-74
2022/11/13 06:47:54;;;;;;;1999.90;999.90;;;1.00;99.90;;;;;;5015838;28;20035;-74
2022/11/13 06:50:20;;;;;;;1999.90;999.90;;;1.00;99.90;;;;;;5014029;28;20034;-74
2022/11/13 06:52:46;;;;;;;1999.90;999.90;;;1.00;99.90;;;;;;5015941;28;20492;-74
2022/11/13 06:55:11;;;;;;;1999.90;999.90;;;1.00;99.90;;;;;;5015337;28;20121;-74
2022/11/13 06:57:37;;;;;;;1999.90;999.90;;;0.90;99.90;;;;;;5015624;28;20034;-73
2022/11/13 07:00:03;;;;;;;1999.90;999.90;;;1.00;99.90;;;;;;5033767;28;20041;-74
2022/11/13 07:02:29;;;;;;;1999.90;999.90;;;1.00;99.90;;;;;;5035256;28;20486;-74
2022/11/13 07:04:54;;;;;;;1999.90;999.90;;;1.00;99.90;;;;;;5034599;28;20029;-74
2022/11/13 07:07:20;;;;;;;1999.90;999.90;;;1.00;99.90;;;;;;5035188;28;20406;-74
2022/11/13 07:09:46;;;;;;;1999.90;999.90;;;1.00;99.90;;;;;;5035221;28;20364;-74
2022/11/13 07:12:11;;;;;;;1999.90;999.90;;;1.00;99.90;;;;;;5035135;28;20038;-74
2022/11/13 07:14:37;;;;;;;1999.90;999.90;;;1.10;99.90;;;;;;5034186;28;20046;-74
2022/11/13 07:17:02;;;;;;;1999.90;999.90;;;1.10;99.90;;;;;;5035079;28;20036;-74
2022/11/13 07:19:28;;;;;;;1999.90;999.90;;;1.10;99.90;;;;;;5035130;28;20143;-74
2022/11/13 07:21:53;;;;;;;1999.90;999.90;;;1.10;99.90;;;;;;5033045;28;20036;-74
2022/11/13 07:24:19;;;;;;;1999.90;999.90;;;1.20;99.90;;;;;;5033205;28;20034;-74
2022/11/13 07:26:44;;;;;;;1999.90;999.90;;;1.20;99.90;;;;;;5034758;28;20049;-74
2022/11/13 07:29:10;;;;;;;1999.90;999.90;;;1.20;99.90;;;;;;5033660;28;20033;-73
2022/11/13 07:31:36;;;;;;;1999.90;999.90;;;1.20;99.90;;;;;;5034582;28;20563;-75
2022/11/13 07:34:02;;;;;;;1999.90;999.90;;;1.20;99.90;;;;;;5034709;28;20041;-74
2022/11/13 07:36:27;;;;;;;1999.90;999.90;;;1.40;99.90;;;;;;5034621;28;20065;-77
2022/11/13 07:38:53;;;;;;;1999.90;999.90;;;1.30;99.90;;;;;;5035149;28;20109;-77
2022/11/13 07:41:18;;;;;;;1999.90;999.90;;;1.40;99.90;;;;;;5034853;28;20061;-73
2022/11/13 07:43:44;;;;;;;1999.90;999.90;;;1.40;99.90;;;;;;5034325;28;20034;-73
2022/11/13 07:46:10;;;;;;;1999.90;999.90;;;1.50;99.90;;;;;;5034312;28;20096;-73
2022/11/13 07:48:35;;;;;;;1999.90;999.90;;;1.50;99.90;;;;;;5034552;28;20036;-73
2022/11/13 07:51:02;;;;;;;1999.90;999.90;;;1.50;99.90;;;;;;5008742;28;20113;-73
2022/11/13 07:53:28;;;;;;;1999.90;999.90;;;1.40;99.90;;;;;;4994818;28;20035;-73
2022/11/13 07:55:53;;;;;;;1999.90;999.90;;;1.50;99.90;;;;;;4993828;28;20042;-73
2022/11/13 07:58:19;;;;;;;1999.90;999.90;;;1.50;99.90;;;;;;4994622;28;20168;-76
2022/11/13 08:00:45;;;;;;;1999.90;999.90;;;1.60;99.90;;;;;;4994936;28;20042;-75
2022/11/13 08:03:15;;;;;;;1999.90;999.90;;;1.60;99.90;;;;;;4994781;28;20038;-74
2022/11/13 08:05:41;;;;;;;1999.90;999.90;;;1.60;99.90;;;;;;4994341;28;20039;-74
2022/11/13 08:08:10;;;;;;;1999.90;999.90;;;1.60;99.90;;;;;;4995451;28;20027;-74
2022/11/13 08:10:35;;;;;;;1999.90;999.90;;;1.70;99.90;;;;;;4994796;28;20035;-76
2022/11/13 08:13:04;;;;;;;1999.90;999.90;;;1.70;99.90;;;;;;4995090;28;20038;-80
2022/11/13 08:15:30;;;;;;;1999.90;999.90;;;1.80;99.90;;;;;;4994351;28;20122;-75
2022/11/13 08:17:57;;;;;;;1999.90;999.90;;;1.80;99.90;;;;;;4993730;28;20465;-74
2022/11/13 08:20:23;;;;;;;1999.90;999.90;;;1.90;99.90;;;;;;4994925;28;20045;-75
2022/11/13 08:22:49;;;;;;;1999.90;999.90;;;2.00;99.90;;;;;;4994035;28;20046;-77
2022/11/13 08:25:15;;;;;;;1999.90;999.90;;;2.10;99.90;;;;;;4993325;28;20046;-75
2022/11/13 08:27:41;;;;;;;1999.90;999.90;;;2.10;99.90;;;;;;4995021;28;20500;-76
2022/11/13 08:30:07;;;;;;;1999.90;999.90;;;2.20;99.90;;;;;;4994796;28;20077;-77
2022/11/13 08:32:33;;;;;;;1999.90;999.90;;;2.30;99.90;;;;;;4995460;28;20046;-77
2022/11/13 08:34:58;;;;;;;1999.90;999.90;;;2.30;99.90;;;;;;4998462;28;20031;-77
2022/11/13 08:37:24;;;;;;;1999.90;999.90;;;2.40;99.90;;;;;;4998438;28;20050;-75
2022/11/13 08:39:49;;;;;;;1999.90;999.90;;;2.50;99.90;;;;;;4998108;28;20031;-76
2022/11/13 08:42:15;;;;;;;1999.90;999.90;;;2.70;99.90;;;;;;4998398;28;20121;-77
2022/11/13 08:44:41;;;;;;;1999.90;999.90;;;2.80;99.90;;;;;;4998813;28;20075;-77
2022/11/13 08:47:07;;;;;;;1999.90;999.90;;;3.00;99.90;;;;;;4999173;28;20026;-77
2022/11/13 08:49:32;;;;;;;1999.90;999.90;;;3.20;99.90;;;;;;4998555;28;20118;-77
2022/11/13 08:51:58;;;;;;;1999.90;999.90;;;3.30;99.90;;;;;;4998432;28;20046;-77
2022/11/13 08:54:24;;;;;;;1999.90;999.90;;;3.40;99.90;;;;;;4996797;28;20139;-77
2022/11/13 08:56:49;;;;;;;1999.90;999.90;;;3.50;99.90;;;;;;4998242;28;20057;-75
2022/11/13 08:59:15;;;;;;;1999.90;999.90;;;3.60;99.90;;;;;;4997755;28;20033;-74
2022/11/13 09:01:40;;;;;;;1999.90;999.90;;;3.70;99.90;;;;;;4998018;28;20043;-75
2022/11/13 09:04:06;;;;;;;1999.90;999.90;;;4.00;99.90;;;;;;4997619;28;20171;-75
2022/11/13 09:06:32;;;;;;;1999.90;999.90;;;4.20;99.90;;;;;;4997471;28;20031;-77
2022/11/13 09:08:58;;;;;;;1999.90;999.90;;;4.50;99.90;;;;;;4997731;28;20483;-74
2022/11/13 09:11:26;;;;;;;1999.90;999.90;;;4.50;99.90;;;;;;4997314;28;20043;-77
2022/11/13 09:13:52;;;;;;;1999.90;999.90;;;4.60;99.90;;;;;;4995884;28;20125;-75
2022/11/13 09:16:18;;;;;;;1999.90;999.90;;;4.60;99.90;;;;;;4996172;28;20500;-75
2022/11/13 09:18:44;;;;;;;1999.90;999.90;;;4.70;99.90;;;;;;4998317;28;20086;-77
2022/11/13 09:21:09;;;;;;;1999.90;999.90;;;4.80;99.90;;;;;;4998190;28;20039;-79
2022/11/13 09:23:35;;;;;;;1999.90;999.90;;;4.90;99.90;;;;;;4997839;28;20481;-75
2022/11/13 09:26:04;;;;;;;1999.90;999.90;;;5.00;99.90;;;;;;4997199;28;20129;-79
2022/11/13 09:28:30;;;;;;;1999.90;999.90;;;5.00;99.90;;;;;;4997856;28;20031;-76
2022/11/13 09:30:56;;;;;;;1999.90;999.90;;;5.10;99.90;;;;;;4996924;28;20046;-77
2022/11/13 09:33:22;;;;;;;1999.90;999.90;;;5.20;99.90;;;;;;4998215;28;20069;-76
2022/11/13 09:35:47;;;;;;;1999.90;999.90;;;5.30;99.90;;;;;;4997874;28;20114;-77
2022/11/13 09:38:14;;;;;;;1999.90;999.90;;;5.30;99.90;;;;;;4998119;28;20105;-76
2022/11/13 09:41:01;;;;;;;1999.90;999.90;;;5.40;99.90;;;;;;4997777;28;20093;-76
2022/11/13 09:43:44;;;;;;;1999.90;999.90;;;5.50;99.90;;;;;;4996092;28;20085;-76
2022/11/13 09:46:47;;;;;;;1999.90;999.90;;;5.60;99.90;;;;;;4996652;28;20066;-76
2022/11/13 09:49:24;;;;;;;1999.90;999.90;;;5.60;99.90;;;;;;4997146;28;20027;-77
2022/11/13 09:51:53;;;;;;;1999.90;999.90;;;5.70;99.90;;;;;;4997319;28;20046;-77
2022/11/13 09:54:19;;;;;;;1999.90;999.90;;;5.80;99.90;;;;;;4997227;28;20489;-77
2022/11/13 09:57:06;;;;;;;1999.90;999.90;;;5.80;99.90;;;;;;5000577;28;20035;-77
2022/11/13 10:00:03;;;;;;;1999.90;999.90;;;5.90;99.90;;;;;;4997621;28;20038;-78
2022/11/13 10:03:06;;;;;;;1999.90;999.90;;;6.10;99.90;;;;;;4992315;28;20047;-76
2022/11/13 10:05:51;;;;;;;1999.90;999.90;;;6.20;99.90;;;;;;4996813;28;20035;-77
2022/11/13 10:08:37;;;;;;;1999.90;999.90;;;6.30;99.90;;;;;;4997247;28;20483;-79
2022/11/13 10:11:20;;;;;;;1999.90;999.90;;;6.40;99.90;;;;;;4998583;28;20053;-78
2022/11/13 10:13:50;;;;;;;1999.90;999.90;;;6.50;99.90;;;;;;4997779;28;20516;-76
2022/11/13 10:16:39;;;;;;;1999.90;999.90;;;6.60;99.90;;;;;;4997229;28;20050;-77
2022/11/13 10:19:30;;;;;;;1999.90;999.90;;;6.80;99.90;;;;;;4997018;28;20027;-77
2022/11/13 10:22:12;;;;;;;1999.90;999.90;;;6.90;99.90;;;;;;4997062;28;20031;-78
2022/11/13 10:24:43;;;;;;;1999.90;999.90;;;7.00;99.90;;;;;;4996928;28;20061;-79
2022/11/13 10:27:10;;;;;;;1999.90;999.90;;;7.10;99.90;;;;;;4996667;28;20035;-77
2022/11/13 10:29:36;;;;;;;1999.90;999.90;;;7.10;99.90;;;;;;4996013;28;20445;-77
2022/11/13 10:32:26;;;;;;;1999.90;999.90;;;7.30;99.90;;;;;;4996561;28;20137;-77
2022/11/13 10:35:24;;;;;;;1999.90;999.90;;;7.50;99.90;;;;;;4996127;28;20034;-77
2022/11/13 10:38:05;;;;;;;1999.90;999.90;;;7.60;99.90;;;;;;4986661;28;20098;-77
2022/11/13 10:40:39;;;;;;;1999.90;999.90;;;7.70;99.90;;;;;;4996280;28;20066;-77
2022/11/13 10:43:20;;;;;;;1999.90;999.90;;;7.80;99.90;;;;;;4995996;28;20031;-77
2022/11/13 10:46:03;;;;;;;1999.90;999.90;;;8.00;99.90;;;;;;4996514;28;20039;-77
2022/11/13 10:48:35;;;;;;;1999.90;999.90;;;8.10;99.90;;;;;;4996327;28;20070;-77
2022/11/13 10:51:03;;;;;;;1999.90;999.90;;;8.10;99.90;;;;;;4996402;28;20392;-77
2022/11/13 10:53:38;;;;;;;1999.90;999.90;;;8.20;99.90;;;;;;4994826;28;20034;-77
2022/11/13 10:56:13;;;;;;;1999.90;999.90;;;8.30;99.90;;;;;;4995774;28;20038;-77
2022/11/13 10:58:39;;;;;;;1999.90;999.90;;;8.30;99.90;;;;;;4995272;28;20035;-77
2022/11/13 11:01:23;;;;;;;1999.90;999.90;;;8.50;99.90;;;;;;4996289;28;20385;-77
2022/11/13 11:03:49;;;;;;;1999.90;999.90;;;8.60;99.90;;;;;;4995850;28;20046;-77
2022/11/13 11:06:14;;;;;;;1999.90;999.90;;;8.60;99.90;;;;;;4994423;28;20105;-78
2022/11/13 11:08:40;;;;;;;1999.90;999.90;;;8.70;99.90;;;;;;4996165;28;20480;-77
2022/11/13 11:14:27;;;;;;;1999.90;999.90;;;8.80;99.90;;;;;;4995908;28;20126;-77
2022/11/13 11:16:53;;;;;;;1999.90;999.90;;;8.90;99.90;;;;;;5017976;23;20527;-77
2022/11/13 11:19:24;;;;;;;1999.90;999.90;;;8.90;99.90;;;;;;5015477;28;20530;-77
2022/11/13 11:21:55;;;;;;;1999.90;999.90;;;9.00;99.90;;;;;;5013640;28;20492;-77
2022/11/13 11:24:31;;;;;;;1999.90;999.90;;;9.10;99.90;;;;;;5014054;28;20515;-77
2022/11/13 11:27:26;;;;;;;1999.90;999.90;;;9.20;99.90;;;;;;5015292;28;20121;-78
2022/11/13 11:30:14;;;;;;;1999.90;999.90;;;9.30;99.90;;;;;;5015501;28;20566;-77
2022/11/13 11:32:45;;;;;;;1999.90;999.90;;;9.30;99.90;;;;;;5015063;28;20266;-77
2022/11/13 11:35:22;;;;;;;1999.90;999.90;;;9.30;99.90;;;;;;5014812;28;20121;-77
2022/11/13 11:37:58;;;;;;;1999.90;999.90;;;9.30;99.90;;;;;;5015424;28;20089;-78
2022/11/13 11:40:35;;;;;;;1999.90;999.90;;;9.40;99.90;;;;;;5015440;28;20041;-78
2022/11/13 11:43:06;;;;;;;1999.90;999.90;;;9.50;99.90;;;;;;5013558;28;20125;-78
2022/11/13 11:45:50;;;;;;;1999.90;999.90;;;9.70;99.90;;;;;;5014684;28;20455;-78
2022/11/13 11:48:19;;;;;;;1999.90;999.90;;;9.70;99.90;;;;;;4999997;28;20051;-77
2022/11/13 11:51:03;;;;;;;1999.90;999.90;;;9.80;99.90;;;;;;4995034;28;20042;-78
2022/11/13 11:53:52;;;;;;;1999.90;999.90;;;10.00;99.90;;;;;;4995271;28;20072;-77
2022/11/13 11:56:34;;;;;;;1999.90;999.90;;;10.10;99.90;;;;;;4994625;28;20512;-77
2022/11/13 11:59:33;;;;;;;1999.90;999.90;;;10.00;99.90;;;;;;4994741;28;20038;-77
2022/11/13 12:02:05;;;;;;;1999.90;999.90;;;10.10;99.90;;;;;;4993590;28;20534;-78
2022/11/13 12:04:52;;;;;;;1999.90;999.90;;;10.20;99.90;;;;;;4995178;28;20030;-78
2022/11/13 12:07:46;;;;;;;1999.90;999.90;;;10.30;99.90;;;;;;4994853;28;20069;-78
2022/11/13 12:10:31;;;;;;;1999.90;999.90;;;10.40;99.90;;;;;;4994647;28;20039;-78
2022/11/13 12:13:11;;;;;;;1999.90;999.90;;;10.60;99.90;;;;;;4994927;28;20107;-80
2022/11/13 12:15:45;;;;;;;1999.90;999.90;;;10.70;99.90;;;;;;4995497;28;20039;-75
2022/11/13 12:18:14;;;;;;;1999.90;999.90;;;10.90;99.90;;;;;;4995419;28;20035;-78
2022/11/13 12:21:04;;;;;;;1999.90;999.90;;;11.00;99.90;;;;;;4995705;28;20191;-79
2022/11/13 12:24:08;;;;;;;1999.90;999.90;;;11.10;99.90;;;;;;4994662;28;20034;-77
2022/11/13 12:27:00;;;;;;;1999.90;999.90;;;11.10;99.90;;;;;;4992896;28;20492;-77
2022/11/13 12:29:31;;;;;;;1999.90;999.90;;;11.30;99.90;;;;;;4994882;28;20487;-77
2022/11/13 12:32:31;;;;;;;1999.90;999.90;;;11.40;99.90;;;;;;4995219;28;20046;-77
2022/11/13 12:35:06;;;;;;;1999.90;999.90;;;11.40;99.90;;;;;;4994748;28;20031;-80
2022/11/13 12:37:50;;;;;;;1999.90;999.90;;;11.40;99.90;;;;;;4992994;28;20031;-75
2022/11/13 12:40:40;;;;;;;1999.90;999.90;;;11.50;99.90;;;;;;4994570;28;20481;-75
2022/11/13 12:43:27;;;;;;;1999.90;999.90;;;11.60;99.90;;;;;;4994658;28;20504;-77
2022/11/13 12:46:03;;;;;;;1999.90;999.90;;;11.70;99.90;;;;;;4992333;28;20039;-76
2022/11/13 12:48:32;;;;;;;1999.90;999.90;;;11.70;99.90;;;;;;4994781;28;20110;-76
2022/11/13 12:51:02;;;;;;;1999.90;999.90;;;11.70;99.90;;;;;;4994323;28;20504;-76
2022/11/13 12:53:30;;;;;;;1999.90;999.90;;;11.80;99.90;;;;;;4992945;28;20174;-75
2022/11/13 12:55:59;;;;;;;1999.90;999.90;;;11.80;99.90;;;;;;4994126;28;20034;-75
2022/11/13 12:58:30;;;;;;;1999.90;999.90;;;11.70;99.90;;;;;;4994549;28;20027;-75
2022/11/13 13:01:06;;;;;;;1999.90;999.90;;;11.70;99.90;;;;;;4994432;28;20097;-75
2022/11/13 13:04:03;;;;;;;1999.90;999.90;;;11.70;99.90;;;;;;4994539;28;20030;-76
2022/11/13 13:06:58;;;;;;;1999.90;999.90;;;11.70;99.90;;;;;;4993946;28;20039;-75
2022/11/13 13:09:54;;;;;;;1999.90;999.90;;;11.60;99.90;;;;;;4994317;28;20564;-75
2022/11/13 13:12:48;;;;;;;1999.90;999.90;;;11.60;99.90;;;;;;4992573;28;20042;-75
2022/11/13 13:15:20;;;;;;;1999.90;999.90;;;11.60;99.90;;;;;;4993348;28;20098;-75
2022/11/13 13:17:46;;;;;;;1999.90;999.90;;;11.70;99.90;;;;;;4994200;28;20039;-76
2022/11/13 13:20:14;;;;;;;1999.90;999.90;;;11.70;99.90;;;;;;4994146;28;20500;-75
2022/11/13 13:22:40;;;;;;;1999.90;999.90;;;11.70;99.90;;;;;;4997520;28;20037;-75
2022/11/13 13:25:21;;;;;;;1999.90;999.90;;;11.70;99.90;;;;;;4997053;28;20041;-76
2022/11/13 13:28:07;;;;;;;1999.90;999.90;;;11.80;99.90;;;;;;4995952;28;20030;-75
2022/11/13 13:31:02;;;;;;;1999.90;999.90;;;11.80;99.90;;;;;;4997283;28;20058;-75
2022/11/13 13:33:45;;;;;;;1999.90;999.90;;;11.90;99.90;;;;;;4996056;28;20035;-76
2022/11/13 13:36:24;;;;;;;1999.90;999.90;;;11.80;99.90;;;;;;4995326;28;20122;-75
2022/11/13 13:38:59;;;;;;;1999.90;999.90;;;11.70;99.90;;;;;;4997151;28;20093;-75
2022/11/13 13:41:52;;;;;;;1999.90;999.90;;;11.90;99.90;;;;;;4997671;28;21068;-75
2022/11/13 13:44:30;;;;;;;1999.90;999.90;;;11.90;99.90;;;;;;4997212;28;20114;-75
2022/11/13 13:46:57;;;;;;;1999.90;999.90;;;11.90;99.90;;;;;;4997051;28;20039;-75
2022/11/13 13:49:25;;;;;;;1999.90;999.90;;;11.90;99.90;;;;;;4997071;28;20035;-75
2022/11/13 13:51:54;;;;;;;1999.90;999.90;;;11.90;99.90;;;;;;4996661;28;20078;-76
2022/11/13 13:54:29;;;;;;;1999.90;999.90;;;11.80;99.90;;;;;;4995373;28;20030;-75
2022/11/13 13:56:56;;;;;;;1999.90;999.90;;;11.90;99.90;;;;;;4996691;28;20041;-75
2022/11/13 13:59:35;;;;;;;1999.90;999.90;;;11.90;99.90;;;;;;4996895;28;20037;-75
2022/11/13 14:02:02;;;;;;;1999.90;999.90;;;11.80;99.90;;;;;;4996957;28;20050;-75
2022/11/13 14:04:32;;;;;;;1999.90;999.90;;;11.80;99.90;;;;;;4996871;28;20105;-76
2022/11/13 14:07:00;;;;;;;1999.90;999.90;;;11.80;99.90;;;;;;4996447;28;20039;-76
2022/11/13 14:09:28;;;;;;;1999.90;999.90;;;11.80;99.90;;;;;;4996470;28;20034;-75
2022/11/13 14:12:03;;;;;;;1999.90;999.90;;;11.70;99.90;;;;;;4996416;28;20043;-75
2022/11/13 14:14:29;;;;;;;1999.90;999.90;;;11.70;99.90;;;;;;4996316;28;20027;-76
2022/11/13 14:16:57;;;;;;;1999.90;999.90;;;11.70;99.90;;;;;;4995859;28;20043;-76
2022/11/13 14:19:23;;;;;;;1999.90;999.90;;;11.60;99.90;;;;;;4996566;28;20046;-75
2022/11/13 14:21:55;;;;;;;1999.90;999.90;;;11.70;99.90;;;;;;4996371;28;20034;-76
2022/11/13 14:24:35;;;;;;;1999.90;999.90;;;11.60;99.90;;;;;;4996734;28;20477;-75
2022/11/13 14:27:08;;;;;;;1999.90;999.90;;;11.60;99.90;;;;;;4996413;28;20039;-75
2022/11/13 14:29:40;;;;;;;1999.90;999.90;;;11.60;99.90;;;;;;4996510;28;20118;-76
2022/11/13 14:32:13;;;;;;;1999.90;999.90;;;11.60;99.90;;;;;;4994826;28;20100;-75
2022/11/13 14:34:44;;;;;;;1999.90;999.90;;;11.50;99.90;;;;;;4996335;28;20039;-75
2022/11/13 14:37:12;;;;;;;1999.90;999.90;;;11.40;99.90;;;;;;4996163;28;20049;-75
2022/11/13 14:39:37;;;;;;;1999.90;999.90;;;11.40;99.90;;;;;;4996308;28;20031;-75
2022/11/13 14:42:03;;;;;;;1999.90;999.90;;;11.30;99.90;;;;;;4996760;28;20499;-75
2022/11/13 14:44:34;;;;;;;1999.90;999.90;;;11.30;99.90;;;;;;4996447;28;20035;-75
2022/11/13 14:47:05;;;;;;;1999.90;999.90;;;11.20;99.90;;;;;;4995810;28;20067;-75
2022/11/13 14:49:34;;;;;;;1999.90;999.90;;;11.10;99.90;;;;;;4995792;28;20034;-75
2022/11/13 14:52:00;;;;;;;1999.90;999.90;;;10.90;99.90;;;;;;4995900;28;20512;-75
2022/11/13 14:54:32;;;;;;;1999.90;999.90;;;10.90;99.90;;;;;;4996004;28;20039;-75
2022/11/13 14:57:11;;;;;;;1999.90;999.90;;;10.80;99.90;;;;;;4995739;28;20049;-75
2022/11/13 14:59:37;;;;;;;1999.90;999.90;;;10.70;99.90;;;;;;4996010;28;20031;-75
2022/11/13 15:02:04;;;;;;;1999.90;999.90;;;10.50;99.90;;;;;;4996312;28;20137;-76
2022/11/13 15:04:29;;;;;;;1999.90;999.90;;;10.30;99.90;;;;;;4995618;28;20185;-75
2022/11/13 15:06:59;;;;;;;1999.90;999.90;;;10.20;99.90;;;;;;4995935;28;20615;-76
2022/11/13 15:09:25;;;;;;;1999.90;999.90;;;9.90;99.90;;;;;;4995851;28;20027;-75
2022/11/13 15:11:51;;;;;;;1999.90;999.90;;;9.70;99.90;;;;;;4996608;28;20067;-75
2022/11/13 15:14:18;;;;;;;1999.90;999.90;;;9.60;99.90;;;;;;4995776;28;20058;-75
2022/11/13 15:16:49;;;;;;;1999.90;999.90;;;9.40;99.90;;;;;;4994594;28;20043;-75
2022/11/13 15:19:35;;;;;;;1999.90;999.90;;;9.20;99.90;;;;;;4995805;28;20026;-75
2022/11/13 15:22:01;;;;;;;1999.90;999.90;;;9.00;99.90;;;;;;4995705;28;20039;-75
2022/11/13 15:24:27;;;;;;;1999.90;999.90;;;8.90;99.90;;;;;;4994455;28;20489;-75
2022/11/13 15:26:53;;;;;;;1999.90;999.90;;;8.70;99.90;;;;;;4995047;28;20042;-75
2022/11/13 15:29:19;;;;;;;1999.90;999.90;;;8.60;99.90;;;;;;4996008;28;20485;-75
2022/11/13 15:31:46;;;;;;;1999.90;999.90;;;8.50;99.90;;;;;;4996024;28;20047;-75
2022/11/13 15:34:13;;;;;;;1999.90;999.90;;;8.40;99.90;;;;;;4993951;28;20408;-75
2022/11/13 15:36:40;;;;;;;1999.90;999.90;;;8.20;99.90;;;;;;4995027;28;20031;-76
2022/11/13 15:39:06;;;;;;;1999.90;999.90;;;8.10;99.90;;;;;;4995487;28;20093;-76
2022/11/13 15:41:35;;;;;;;1999.90;999.90;;;7.90;99.90;;;;;;4995411;28;20043;-75
2022/11/13 15:44:06;;;;;;;1999.90;999.90;;;7.80;99.90;;;;;;4993192;28;20119;-75
2022/11/13 15:46:31;;;;;;;1999.90;999.90;;;7.70;99.90;;;;;;4995309;28;20043;-75
2022/11/13 15:48:57;;;;;;;1999.90;999.90;;;7.60;99.90;;;;;;4995183;28;20030;-75
2022/11/13 15:51:42;;;;;;;1999.90;999.90;;;7.50;99.90;;;;;;4995149;28;20117;-75
2022/11/13 15:54:23;;;;;;;1999.90;999.90;;;7.50;99.90;;;;;;4995312;28;20027;-75
2022/11/13 15:56:48;;;;;;;1999.90;999.90;;;7.60;99.90;;;;;;4994988;28;20792;-75
2022/11/13 15:59:14;;;;;;;1999.90;999.90;;;7.60;99.90;;;;;;4995160;28;20038;-75
2022/11/13 16:01:40;;;;;;;1999.90;999.90;;;7.50;99.90;;;;;;4995326;28;20035;-75
2022/11/13 16:04:07;;;;;;;1999.90;999.90;;;7.40;99.90;;;;;;4994001;28;20572;-75
2022/11/13 16:06:34;;;;;;;1999.90;999.90;;;7.40;99.90;;;;;;4993117;28;20042;-75
2022/11/13 16:09:01;;;;;;;1999.90;999.90;;;7.40;99.90;;;;;;4995317;28;20031;-76
2022/11/13 16:11:30;;;;;;;1999.90;999.90;;;7.20;99.90;;;;;;4995376;28;20474;-75
2022/11/13 16:13:56;;;;;;;1999.90;999.90;;;7.20;99.90;;;;;;4994790;28;20035;-76
2022/11/13 16:16:28;;;;;;;1999.90;999.90;;;7.20;99.90;;;;;;4992815;28;20050;-75
2022/11/13 16:18:54;;;;;;;1999.90;999.90;;;7.10;99.90;;;;;;4995395;28;20097;-75
2022/11/13 16:21:20;;;;;;;1999.90;999.90;;;7.00;99.90;;;;;;4994984;28;20031;-75
2022/11/13 16:23:54;;;;;;;1999.90;999.90;;;6.90;99.90;;;;;;4997388;28;20031;-75
2022/11/13 16:26:24;;;;;;;1999.90;999.90;;;6.70;99.90;;;;;;4998427;28;20482;-75
2022/11/13 16:28:52;;;;;;;1999.90;999.90;;;6.60;99.90;;;;;;4995042;28;20042;-75
2022/11/13 16:31:19;;;;;;;1999.90;999.90;;;6.40;99.90;;;;;;4994686;28;20122;-76
2022/11/13 16:33:49;;;;;;;1999.90;999.90;;;6.30;99.90;;;;;;4999323;28;20172;-77
2022/11/13 16:36:21;;;;;;;1999.90;999.90;;;6.20;99.90;;;;;;4994239;28;20093;-77
2022/11/13 16:38:47;;;;;;;1999.90;999.90;;;6.10;99.90;;;;;;4994929;28;20042;-76
2022/11/13 16:41:15;;;;;;;1999.90;999.90;;;6.00;99.90;;;;;;4994841;28;20050;-76
2022/11/13 16:43:44;;;;;;;1999.90;999.90;;;6.00;99.90;;;;;;4994977;28;20077;-76
2022/11/13 16:46:28;;;;;;;1999.90;999.90;;;5.90;99.90;;;;;;4994077;28;20041;-77
2022/11/13 16:48:54;;;;;;;1999.90;999.90;;;5.70;99.90;;;;;;4994651;28;20129;-77
2022/11/13 16:51:20;;;;;;;1999.90;999.90;;;5.70;99.90;;;;;;4994532;28;20569;-76
2022/11/13 16:53:45;;;;;;;1999.90;999.90;;;5.80;99.90;;;;;;4994374;28;20030;-76
2022/11/13 16:56:27;;;;;;;1999.90;999.90;;;5.70;99.90;;;;;;4996116;28;20122;-78
2022/11/13 16:58:54;;;;;;;1999.90;999.90;;;5.60;99.90;;;;;;4999756;28;20031;-77
2022/11/13 17:01:23;;;;;;;1999.90;999.90;;;5.60;99.90;;;;;;4999011;28;20038;-77